4XCWR LLHZ-LLHZ

Flight info

Callsign 4XCWR
Flight time 0h 2m
Altitude 4000
Route CVFR ROUTES
Aircraft C172/L-V/N

Departure

Time 2026-05-04 19:16
Airport Herzliya Airport (LLHZ)

Arrival

Time 2026-05-04 19:18
Airport Herzliya Airport (LLHZ)
Time Latitude Longitude Altitude Speed Heading
2026-05-04 19:05 32.18250 34.82828 94 ft 0 kts 200°
2026-05-04 19:07 32.18249 34.82828 94 ft 1 kts 201°
2026-05-04 19:07 32.18198 34.82823 94 ft 9 kts 133°
2026-05-04 19:07 32.18175 34.82896 96 ft 11 kts 110°
2026-05-04 19:07 32.18143 34.82997 95 ft 15 kts 118°
2026-05-04 19:08 32.18101 34.83098 98 ft 12 kts 109°
2026-05-04 19:08 32.18078 34.83175 99 ft 8 kts 108°
2026-05-04 19:08 32.18061 34.83234 100 ft 10 kts 109°
2026-05-04 19:08 32.18028 34.83344 103 ft 15 kts 109°
2026-05-04 19:09 32.17999 34.83443 105 ft 11 kts 109°
2026-05-04 19:09 32.17965 34.83558 108 ft 17 kts 111°
2026-05-04 19:09 32.17931 34.83673 113 ft 17 kts 110°
2026-05-04 19:09 32.17895 34.83793 117 ft 13 kts 107°
2026-05-04 19:10 32.17880 34.83845 121 ft 0 kts 97°
2026-05-04 19:15 32.17881 34.83852 121 ft 7 kts 73°
2026-05-04 19:15 32.17927 34.83812 120 ft 23 kts 284°
2026-05-04 19:15 32.18038 34.83437 176 ft 60 kts 289°
2026-05-04 19:15 32.18208 34.82949 326 ft 74 kts 291°
2026-05-04 19:16 32.18614 34.82669 586 ft 83 kts 356°
2026-05-04 19:16 32.19188 34.82873 785 ft 95 kts 34°
2026-05-04 19:16 32.19426 34.83658 813 ft 111 kts 98°
2026-05-04 19:16 32.19312 34.84566 838 ft 112 kts 110°
2026-05-04 19:17 32.19067 34.85429 881 ft 111 kts 119°
2026-05-04 19:17 32.18655 34.86011 833 ft 71 kts 185°
2026-05-04 19:17 32.18237 34.85890 804 ft 61 kts 269°
2026-05-04 19:17 32.18023 34.85437 491 ft 83 kts 237°
2026-05-04 19:18 32.17700 34.84995 469 ft 67 kts 259°
2026-05-04 19:18 32.17743 34.84477 313 ft 61 kts 289°
2026-05-04 19:18 32.17885 34.83966 176 ft 65 kts 285°
2026-05-04 19:18 32.18011 34.83561 107 ft 42 kts 282°
2026-05-04 19:19 32.18102 34.83224 98 ft 63 kts 288°
2026-05-04 19:19 32.18263 34.82978 94 ft 6 kts 143°
2026-05-04 19:19 32.18250 34.82828 94 ft 0 kts 200°
2026-05-04 19:20 32.18246 34.82827 94 ft 0 kts 197°
2026-05-04 19:21 32.18246 34.82826 94 ft 1 kts 197°
2026-05-04 19:21 32.18175 34.82890 95 ft 17 kts 109°
2026-05-04 19:21 32.18149 34.82976 95 ft 16 kts 112°
2026-05-04 19:22 32.18100 34.83102 98 ft 19 kts 109°
2026-05-04 19:22 32.18053 34.83257 101 ft 22 kts 109°
2026-05-04 19:22 32.18004 34.83424 105 ft 13 kts 107°
2026-05-04 19:22 32.18001 34.83435 105 ft 0 kts 111°
2026-05-04 19:23 32.18001 34.83436 105 ft 1 kts 111°
2026-05-04 19:23 32.17962 34.83564 108 ft 36 kts 109°
2026-05-04 19:23 32.17889 34.83810 120 ft 27 kts 110°
2026-05-04 19:24 32.17914 34.83848 123 ft 11 kts 289°
2026-05-04 19:24 32.18007 34.83536 107 ft 68 kts 288°
2026-05-04 19:24 32.18190 34.82962 307 ft 75 kts 294°
2026-05-04 19:24 32.18712 34.82890 540 ft 86 kts 11°
2026-05-04 19:25 32.19192 34.83339 726 ft 99 kts 85°
2026-05-04 19:25 32.19074 34.84196 809 ft 115 kts 107°
2026-05-04 19:25 32.18692 34.84718 717 ft 78 kts 212°
2026-05-04 19:25 32.18233 34.84432 530 ft 70 kts 219°
2026-05-04 19:26 32.17923 34.84050 349 ft 63 kts 252°
2026-05-04 19:26 32.18002 34.83554 107 ft 50 kts 290°
2026-05-04 19:26 32.18049 34.83332 102 ft 9 kts 203°
2026-05-04 19:26 32.18046 34.83331 102 ft 0 kts 193°
2026-05-04 19:27 32.18011 34.83402 104 ft 19 kts 108°
2026-05-04 19:27 32.18002 34.83433 105 ft 0 kts 107°
2026-05-04 19:28 32.17996 34.83453 106 ft 12 kts 109°
2026-05-04 19:29 32.17940 34.83642 112 ft 30 kts 109°
2026-05-04 19:29 32.17881 34.83839 119 ft 17 kts 102°
2026-05-04 19:29 32.17937 34.83769 120 ft 35 kts 289°
2026-05-04 19:29 32.18085 34.83375 178 ft 60 kts 342°
2026-05-04 19:30 32.18462 34.83591 219 ft 61 kts 339°
2026-05-04 19:30 32.18919 34.83461 239 ft 82 kts 349°
2026-05-04 19:30 32.19302 34.83767 392 ft 95 kts 112°
2026-05-04 19:30 32.19026 34.84445 665 ft 87 kts 121°
2026-05-04 19:31 32.18730 34.85041 927 ft 83 kts 138°
2026-05-04 19:31 32.18201 34.85293 1116 ft 80 kts 189°
2026-05-04 19:31 32.17695 34.85128 1141 ft 72 kts 242°
2026-05-04 19:31 32.17786 34.84528 1017 ft 74 kts 287°
2026-05-04 19:32 32.17704 34.84049 364 ft 66 kts 262°
2026-05-04 19:32 32.17972 34.83659 120 ft 56 kts 293°
2026-05-04 19:32 32.18086 34.83280 111 ft 62 kts 286°
2026-05-04 19:32 32.18201 34.82887 94 ft 36 kts 261°
2026-05-04 19:33 32.18194 34.82800 94 ft 0 kts 310°
2026-05-04 19:33 32.18250 34.82828 94 ft 0 kts 200°
2026-05-04 19:34 32.18243 34.82825 95 ft 10 kts 196°
2026-05-04 19:34 32.18044 34.82753 121 ft 30 kts 155°
2026-05-04 19:34 32.18029 34.82758 93 ft 0 kts 290°